Aviation Digital Data Service (ADDS)

Output produced by METARs form (1902 UTC 24 June 2017)
found at http://aviationweather.gov/adds/metars/
 
KPBG 241720Z 2418/2518 30009G16KT P6SM FEW060 
     FM250000 26005KT P6SM SCT060 
     FM250700 VRB03KT 3SM BR SCT003 
     FM251100 22005KT P6SM SCT080